sensor_id;sensor_type;location;lat;lon;timestamp;P1;durP1;ratioP1;P2;durP2;ratioP2
17784;SDS011;9016;53.582;10.062;2023-07-09T00:01:50;0.40;;;0.40;;
17784;SDS011;9016;53.582;10.062;2023-07-09T00:04:20;0.30;;;0.30;;
17784;SDS011;9016;53.582;10.062;2023-07-09T00:06:49;0.30;;;0.30;;
17784;SDS011;9016;53.582;10.062;2023-07-09T00:09:18;0.30;;;0.30;;
17784;SDS011;9016;53.582;10.062;2023-07-09T00:11:49;0.32;;;0.32;;
17784;SDS011;9016;53.582;10.062;2023-07-09T00:14:26;0.30;;;0.30;;
17784;SDS011;9016;53.582;10.062;2023-07-09T00:16:55;0.20;;;0.20;;
17784;SDS011;9016;53.582;10.062;2023-07-09T00:19:24;0.30;;;0.30;;
17784;SDS011;9016;53.582;10.062;2023-07-09T00:21:55;0.30;;;0.30;;
17784;SDS011;9016;53.582;10.062;2023-07-09T00:24:24;0.38;;;0.38;;
17784;SDS011;9016;53.582;10.062;2023-07-09T00:26:53;0.30;;;0.30;;
17784;SDS011;9016;53.582;10.062;2023-07-09T00:29:21;0.40;;;0.40;;
17784;SDS011;9016;53.582;10.062;2023-07-09T00:31:49;0.30;;;0.30;;
17784;SDS011;9016;53.582;10.062;2023-07-09T00:34:17;0.30;;;0.30;;
17784;SDS011;9016;53.582;10.062;2023-07-09T00:36:50;0.30;;;0.30;;
17784;SDS011;9016;53.582;10.062;2023-07-09T00:39:19;0.30;;;0.30;;
17784;SDS011;9016;53.582;10.062;2023-07-09T00:41:48;0.30;;;0.30;;
17784;SDS011;9016;53.582;10.062;2023-07-09T00:44:27;0.30;;;0.30;;
17784;SDS011;9016;53.582;10.062;2023-07-09T00:47:13;0.30;;;0.30;;
17784;SDS011;9016;53.582;10.062;2023-07-09T00:49:46;0.40;;;0.40;;
17784;SDS011;9016;53.582;10.062;2023-07-09T00:52:24;0.30;;;0.30;;
17784;SDS011;9016;53.582;10.062;2023-07-09T00:54:58;0.30;;;0.30;;
17784;SDS011;9016;53.582;10.062;2023-07-09T00:57:35;0.30;;;0.30;;
17784;SDS011;9016;53.582;10.062;2023-07-09T01:00:09;0.30;;;0.30;;
17784;SDS011;9016;53.582;10.062;2023-07-09T01:02:41;0.30;;;0.30;;
17784;SDS011;9016;53.582;10.062;2023-07-09T01:05:15;0.30;;;0.30;;
17784;SDS011;9016;53.582;10.062;2023-07-09T01:07:48;0.30;;;0.30;;
17784;SDS011;9016;53.582;10.062;2023-07-09T01:10:19;0.30;;;0.30;;
17784;SDS011;9016;53.582;10.062;2023-07-09T01:12:51;0.32;;;0.32;;
17784;SDS011;9016;53.582;10.062;2023-07-09T01:15:20;0.40;;;0.40;;
17784;SDS011;9016;53.582;10.062;2023-07-09T01:17:48;0.30;;;0.30;;
17784;SDS011;9016;53.582;10.062;2023-07-09T01:20:23;0.30;;;0.30;;
17784;SDS011;9016;53.582;10.062;2023-07-09T01:22:53;0.30;;;0.30;;
17784;SDS011;9016;53.582;10.062;2023-07-09T01:25:23;0.30;;;0.30;;
17784;SDS011;9016;53.582;10.062;2023-07-09T01:27:52;0.30;;;0.30;;
17784;SDS011;9016;53.582;10.062;2023-07-09T01:30:24;0.30;;;0.30;;
17784;SDS011;9016;53.582;10.062;2023-07-09T01:32:55;0.30;;;0.30;;
17784;SDS011;9016;53.582;10.062;2023-07-09T01:35:25;0.30;;;0.30;;
17784;SDS011;9016;53.582;10.062;2023-07-09T01:37:56;0.30;;;0.30;;
17784;SDS011;9016;53.582;10.062;2023-07-09T01:40:25;0.30;;;0.30;;
17784;SDS011;9016;53.582;10.062;2023-07-09T01:42:59;0.30;;;0.30;;
17784;SDS011;9016;53.582;10.062;2023-07-09T01:45:28;0.30;;;0.30;;
17784;SDS011;9016;53.582;10.062;2023-07-09T01:47:59;0.30;;;0.30;;
17784;SDS011;9016;53.582;10.062;2023-07-09T01:50:29;0.30;;;0.30;;
17784;SDS011;9016;53.582;10.062;2023-07-09T01:52:59;0.30;;;0.30;;
17784;SDS011;9016;53.582;10.062;2023-07-09T01:55:28;0.30;;;0.30;;
17784;SDS011;9016;53.582;10.062;2023-07-09T01:57:56;0.30;;;0.30;;
17784;SDS011;9016;53.582;10.062;2023-07-09T02:00:24;0.30;;;0.30;;
17784;SDS011;9016;53.582;10.062;2023-07-09T02:02:53;0.30;;;0.30;;
17784;SDS011;9016;53.582;10.062;2023-07-09T02:05:21;0.30;;;0.30;;
17784;SDS011;9016;53.582;10.062;2023-07-09T02:07:49;0.30;;;0.30;;
17784;SDS011;9016;53.582;10.062;2023-07-09T02:10:18;0.30;;;0.30;;
17784;SDS011;9016;53.582;10.062;2023-07-09T02:12:47;0.30;;;0.30;;
17784;SDS011;9016;53.582;10.062;2023-07-09T02:15:15;0.30;;;0.30;;
17784;SDS011;9016;53.582;10.062;2023-07-09T02:17:44;0.30;;;0.30;;
17784;SDS011;9016;53.582;10.062;2023-07-09T02:20:13;0.30;;;0.30;;
17784;SDS011;9016;53.582;10.062;2023-07-09T02:22:41;0.30;;;0.30;;
17784;SDS011;9016;53.582;10.062;2023-07-09T02:25:10;0.30;;;0.30;;
17784;SDS011;9016;53.582;10.062;2023-07-09T02:27:39;0.40;;;0.40;;
17784;SDS011;9016;53.582;10.062;2023-07-09T02:30:07;0.30;;;0.30;;
17784;SDS011;9016;53.582;10.062;2023-07-09T02:32:37;0.30;;;0.30;;
17784;SDS011;9016;53.582;10.062;2023-07-09T02:35:06;0.30;;;0.30;;
17784;SDS011;9016;53.582;10.062;2023-07-09T02:37:35;0.32;;;0.32;;
17784;SDS011;9016;53.582;10.062;2023-07-09T02:40:03;0.30;;;0.30;;
17784;SDS011;9016;53.582;10.062;2023-07-09T02:42:33;0.30;;;0.30;;
17784;SDS011;9016;53.582;10.062;2023-07-09T02:45:03;0.30;;;0.30;;
17784;SDS011;9016;53.582;10.062;2023-07-09T02:47:32;0.30;;;0.30;;
17784;SDS011;9016;53.582;10.062;2023-07-09T02:50:00;0.40;;;0.40;;
17784;SDS011;9016;53.582;10.062;2023-07-09T02:52:29;0.30;;;0.30;;
17784;SDS011;9016;53.582;10.062;2023-07-09T02:54:57;0.30;;;0.30;;
17784;SDS011;9016;53.582;10.062;2023-07-09T02:57:25;0.30;;;0.30;;
17784;SDS011;9016;53.582;10.062;2023-07-09T02:59:53;0.30;;;0.30;;
17784;SDS011;9016;53.582;10.062;2023-07-09T03:02:23;0.30;;;0.30;;
17784;SDS011;9016;53.582;10.062;2023-07-09T03:04:51;0.30;;;0.30;;
17784;SDS011;9016;53.582;10.062;2023-07-09T03:07:19;0.30;;;0.30;;
17784;SDS011;9016;53.582;10.062;2023-07-09T03:09:46;0.30;;;0.30;;
17784;SDS011;9016;53.582;10.062;2023-07-09T03:12:14;0.30;;;0.30;;
17784;SDS011;9016;53.582;10.062;2023-07-09T03:14:42;0.30;;;0.30;;
17784;SDS011;9016;53.582;10.062;2023-07-09T03:17:10;0.30;;;0.30;;
17784;SDS011;9016;53.582;10.062;2023-07-09T03:19:40;0.30;;;0.30;;
17784;SDS011;9016;53.582;10.062;2023-07-09T03:22:08;0.30;;;0.30;;
17784;SDS011;9016;53.582;10.062;2023-07-09T03:24:36;0.30;;;0.30;;
17784;SDS011;9016;53.582;10.062;2023-07-09T03:27:04;0.38;;;0.38;;
17784;SDS011;9016;53.582;10.062;2023-07-09T03:29:33;0.30;;;0.30;;
17784;SDS011;9016;53.582;10.062;2023-07-09T03:32:01;0.30;;;0.30;;
17784;SDS011;9016;53.582;10.062;2023-07-09T03:34:29;0.30;;;0.30;;
17784;SDS011;9016;53.582;10.062;2023-07-09T03:36:58;0.30;;;0.30;;
17784;SDS011;9016;53.582;10.062;2023-07-09T03:39:26;0.30;;;0.30;;
17784;SDS011;9016;53.582;10.062;2023-07-09T03:41:54;0.30;;;0.30;;
17784;SDS011;9016;53.582;10.062;2023-07-09T03:44:22;0.30;;;0.30;;
17784;SDS011;9016;53.582;10.062;2023-07-09T03:46:50;0.30;;;0.30;;
17784;SDS011;9016;53.582;10.062;2023-07-09T03:49:18;0.30;;;0.30;;
17784;SDS011;9016;53.582;10.062;2023-07-09T03:51:46;0.30;;;0.30;;
17784;SDS011;9016;53.582;10.062;2023-07-09T03:54:16;0.30;;;0.30;;
17784;SDS011;9016;53.582;10.062;2023-07-09T03:56:44;0.30;;;0.30;;
17784;SDS011;9016;53.582;10.062;2023-07-09T03:59:11;0.30;;;0.30;;
17784;SDS011;9016;53.582;10.062;2023-07-09T04:01:39;0.30;;;0.30;;
17784;SDS011;9016;53.582;10.062;2023-07-09T04:04:10;0.30;;;0.30;;
17784;SDS011;9016;53.582;10.062;2023-07-09T04:06:38;0.30;;;0.30;;
17784;SDS011;9016;53.582;10.062;2023-07-09T04:09:06;0.30;;;0.30;;
17784;SDS011;9016;53.582;10.062;2023-07-09T04:11:36;0.30;;;0.30;;
17784;SDS011;9016;53.582;10.062;2023-07-09T04:14:04;0.30;;;0.30;;
17784;SDS011;9016;53.582;10.062;2023-07-09T04:16:34;0.30;;;0.30;;
17784;SDS011;9016;53.582;10.062;2023-07-09T04:19:02;0.30;;;0.30;;
17784;SDS011;9016;53.582;10.062;2023-07-09T04:21:30;0.30;;;0.30;;
17784;SDS011;9016;53.582;10.062;2023-07-09T04:23:58;0.30;;;0.30;;
17784;SDS011;9016;53.582;10.062;2023-07-09T04:26:26;0.40;;;0.40;;
17784;SDS011;9016;53.582;10.062;2023-07-09T04:28:56;0.30;;;0.30;;
17784;SDS011;9016;53.582;10.062;2023-07-09T04:31:24;0.30;;;0.30;;
17784;SDS011;9016;53.582;10.062;2023-07-09T04:33:52;0.30;;;0.30;;
17784;SDS011;9016;53.582;10.062;2023-07-09T04:36:20;0.30;;;0.30;;
17784;SDS011;9016;53.582;10.062;2023-07-09T04:38:48;0.30;;;0.30;;
17784;SDS011;9016;53.582;10.062;2023-07-09T04:41:16;0.30;;;0.30;;
17784;SDS011;9016;53.582;10.062;2023-07-09T04:43:44;0.30;;;0.30;;
17784;SDS011;9016;53.582;10.062;2023-07-09T04:46:14;0.30;;;0.30;;
17784;SDS011;9016;53.582;10.062;2023-07-09T04:48:42;0.30;;;0.30;;
17784;SDS011;9016;53.582;10.062;2023-07-09T04:51:10;0.35;;;0.35;;
17784;SDS011;9016;53.582;10.062;2023-07-09T04:53:38;0.30;;;0.30;;
17784;SDS011;9016;53.582;10.062;2023-07-09T04:56:06;0.30;;;0.30;;
17784;SDS011;9016;53.582;10.062;2023-07-09T04:58:35;0.30;;;0.30;;
17784;SDS011;9016;53.582;10.062;2023-07-09T05:01:03;0.30;;;0.30;;
17784;SDS011;9016;53.582;10.062;2023-07-09T05:03:33;0.38;;;0.38;;
17784;SDS011;9016;53.582;10.062;2023-07-09T05:06:01;0.30;;;0.30;;
17784;SDS011;9016;53.582;10.062;2023-07-09T05:08:31;0.30;;;0.30;;
17784;SDS011;9016;53.582;10.062;2023-07-09T05:10:59;0.30;;;0.30;;
17784;SDS011;9016;53.582;10.062;2023-07-09T05:13:27;0.30;;;0.30;;
17784;SDS011;9016;53.582;10.062;2023-07-09T05:15:55;0.30;;;0.30;;
17784;SDS011;9016;53.582;10.062;2023-07-09T05:18:23;0.40;;;0.40;;
17784;SDS011;9016;53.582;10.062;2023-07-09T05:20:53;0.30;;;0.30;;
17784;SDS011;9016;53.582;10.062;2023-07-09T05:23:20;0.30;;;0.30;;
17784;SDS011;9016;53.582;10.062;2023-07-09T05:25:49;0.30;;;0.30;;
17784;SDS011;9016;53.582;10.062;2023-07-09T05:28:17;0.30;;;0.30;;
17784;SDS011;9016;53.582;10.062;2023-07-09T05:30:45;0.30;;;0.30;;
17784;SDS011;9016;53.582;10.062;2023-07-09T05:33:13;0.30;;;0.30;;
17784;SDS011;9016;53.582;10.062;2023-07-09T05:35:41;0.30;;;0.30;;
17784;SDS011;9016;53.582;10.062;2023-07-09T05:38:11;0.30;;;0.30;;
17784;SDS011;9016;53.582;10.062;2023-07-09T05:40:40;0.30;;;0.30;;
17784;SDS011;9016;53.582;10.062;2023-07-09T05:43:08;0.30;;;0.30;;
17784;SDS011;9016;53.582;10.062;2023-07-09T05:45:38;0.30;;;0.30;;
17784;SDS011;9016;53.582;10.062;2023-07-09T05:48:06;0.30;;;0.30;;
17784;SDS011;9016;53.582;10.062;2023-07-09T05:50:34;0.30;;;0.30;;
17784;SDS011;9016;53.582;10.062;2023-07-09T05:53:02;0.30;;;0.30;;
17784;SDS011;9016;53.582;10.062;2023-07-09T05:55:33;0.30;;;0.30;;
17784;SDS011;9016;53.582;10.062;2023-07-09T05:58:01;0.30;;;0.30;;
17784;SDS011;9016;53.582;10.062;2023-07-09T06:00:30;0.38;;;0.38;;
17784;SDS011;9016;53.582;10.062;2023-07-09T06:02:58;0.30;;;0.30;;
17784;SDS011;9016;53.582;10.062;2023-07-09T06:05:28;0.30;;;0.30;;
17784;SDS011;9016;53.582;10.062;2023-07-09T06:07:57;0.30;;;0.30;;
17784;SDS011;9016;53.582;10.062;2023-07-09T06:10:25;0.30;;;0.30;;
17784;SDS011;9016;53.582;10.062;2023-07-09T06:12:55;0.30;;;0.30;;
17784;SDS011;9016;53.582;10.062;2023-07-09T06:15:24;0.40;;;0.40;;
17784;SDS011;9016;53.582;10.062;2023-07-09T06:17:52;0.30;;;0.30;;
17784;SDS011;9016;53.582;10.062;2023-07-09T06:20:20;0.38;;;0.38;;
17784;SDS011;9016;53.582;10.062;2023-07-09T06:22:49;0.40;;;0.40;;
17784;SDS011;9016;53.582;10.062;2023-07-09T06:25:17;0.30;;;0.30;;
17784;SDS011;9016;53.582;10.062;2023-07-09T06:27:45;0.40;;;0.40;;
17784;SDS011;9016;53.582;10.062;2023-07-09T06:30:14;0.30;;;0.30;;
17784;SDS011;9016;53.582;10.062;2023-07-09T06:32:44;0.60;;;0.60;;
17784;SDS011;9016;53.582;10.062;2023-07-09T06:35:12;0.60;;;0.60;;
17784;SDS011;9016;53.582;10.062;2023-07-09T06:37:40;0.60;;;0.60;;
17784;SDS011;9016;53.582;10.062;2023-07-09T06:40:08;0.60;;;0.60;;
17784;SDS011;9016;53.582;10.062;2023-07-09T06:42:39;0.60;;;0.60;;
17784;SDS011;9016;53.582;10.062;2023-07-09T06:45:07;0.60;;;0.60;;
17784;SDS011;9016;53.582;10.062;2023-07-09T06:47:37;0.60;;;0.60;;
17784;SDS011;9016;53.582;10.062;2023-07-09T06:50:05;0.70;;;0.70;;
17784;SDS011;9016;53.582;10.062;2023-07-09T06:52:34;0.70;;;0.70;;
17784;SDS011;9016;53.582;10.062;2023-07-09T06:55:02;0.70;;;0.70;;
17784;SDS011;9016;53.582;10.062;2023-07-09T06:57:31;0.70;;;0.70;;
17784;SDS011;9016;53.582;10.062;2023-07-09T06:59:59;0.70;;;0.70;;
17784;SDS011;9016;53.582;10.062;2023-07-09T07:02:27;0.70;;;0.70;;
17784;SDS011;9016;53.582;10.062;2023-07-09T07:04:57;0.70;;;0.70;;
17784;SDS011;9016;53.582;10.062;2023-07-09T07:07:25;0.70;;;0.70;;
17784;SDS011;9016;53.582;10.062;2023-07-09T07:09:53;0.70;;;0.70;;
17784;SDS011;9016;53.582;10.062;2023-07-09T07:12:25;0.70;;;0.70;;
17784;SDS011;9016;53.582;10.062;2023-07-09T07:14:54;0.70;;;0.70;;
17784;SDS011;9016;53.582;10.062;2023-07-09T07:17:23;0.80;;;0.80;;
17784;SDS011;9016;53.582;10.062;2023-07-09T07:19:51;0.80;;;0.80;;
17784;SDS011;9016;53.582;10.062;2023-07-09T07:22:20;0.80;;;0.80;;
17784;SDS011;9016;53.582;10.062;2023-07-09T07:24:48;0.77;;;0.77;;
17784;SDS011;9016;53.582;10.062;2023-07-09T07:27:17;0.70;;;0.70;;
17784;SDS011;9016;53.582;10.062;2023-07-09T07:29:48;0.80;;;0.80;;
17784;SDS011;9016;53.582;10.062;2023-07-09T07:32:16;0.80;;;0.80;;
17784;SDS011;9016;53.582;10.062;2023-07-09T07:34:46;0.70;;;0.70;;
17784;SDS011;9016;53.582;10.062;2023-07-09T07:37:14;0.75;;;0.75;;
17784;SDS011;9016;53.582;10.062;2023-07-09T07:39:44;0.80;;;0.80;;
17784;SDS011;9016;53.582;10.062;2023-07-09T07:42:12;0.75;;;0.75;;
17784;SDS011;9016;53.582;10.062;2023-07-09T07:44:41;0.70;;;0.70;;
17784;SDS011;9016;53.582;10.062;2023-07-09T07:47:09;0.80;;;0.80;;
17784;SDS011;9016;53.582;10.062;2023-07-09T07:49:38;0.77;;;0.77;;
17784;SDS011;9016;53.582;10.062;2023-07-09T07:52:07;0.80;;;0.80;;
17784;SDS011;9016;53.582;10.062;2023-07-09T07:54:36;0.80;;;0.80;;
17784;SDS011;9016;53.582;10.062;2023-07-09T07:57:06;0.90;;;0.90;;
17784;SDS011;9016;53.582;10.062;2023-07-09T07:59:44;0.90;;;0.90;;
17784;SDS011;9016;53.582;10.062;2023-07-09T08:02:13;0.80;;;0.80;;
17784;SDS011;9016;53.582;10.062;2023-07-09T08:04:42;0.80;;;0.80;;
17784;SDS011;9016;53.582;10.062;2023-07-09T08:07:10;0.80;;;0.80;;
17784;SDS011;9016;53.582;10.062;2023-07-09T08:09:39;0.88;;;0.88;;
17784;SDS011;9016;53.582;10.062;2023-07-09T08:12:17;0.80;;;0.80;;
17784;SDS011;9016;53.582;10.062;2023-07-09T08:14:45;0.98;;;0.98;;
17784;SDS011;9016;53.582;10.062;2023-07-09T08:17:18;0.88;;;0.88;;
17784;SDS011;9016;53.582;10.062;2023-07-09T08:19:51;0.88;;;0.88;;
17784;SDS011;9016;53.582;10.062;2023-07-09T08:22:23;1.00;;;1.00;;
17784;SDS011;9016;53.582;10.062;2023-07-09T08:24:54;0.90;;;0.90;;
17784;SDS011;9016;53.582;10.062;2023-07-09T08:27:23;0.80;;;0.80;;
17784;SDS011;9016;53.582;10.062;2023-07-09T08:29:51;0.90;;;0.90;;
17784;SDS011;9016;53.582;10.062;2023-07-09T08:32:19;0.90;;;0.90;;
17784;SDS011;9016;53.582;10.062;2023-07-09T08:34:47;0.80;;;0.80;;
17784;SDS011;9016;53.582;10.062;2023-07-09T08:37:35;0.90;;;0.90;;
17784;SDS011;9016;53.582;10.062;2023-07-09T08:40:04;0.80;;;0.80;;
17784;SDS011;9016;53.582;10.062;2023-07-09T08:42:44;1.00;;;1.00;;
17784;SDS011;9016;53.582;10.062;2023-07-09T08:45:29;0.90;;;0.90;;
17784;SDS011;9016;53.582;10.062;2023-07-09T08:48:10;0.90;;;0.90;;
17784;SDS011;9016;53.582;10.062;2023-07-09T08:50:47;0.90;;;0.90;;
17784;SDS011;9016;53.582;10.062;2023-07-09T08:53:19;1.00;;;1.00;;
17784;SDS011;9016;53.582;10.062;2023-07-09T08:55:49;1.20;;;1.20;;
17784;SDS011;9016;53.582;10.062;2023-07-09T08:58:21;0.90;;;0.90;;
17784;SDS011;9016;53.582;10.062;2023-07-09T09:00:59;1.00;;;1.00;;
17784;SDS011;9016;53.582;10.062;2023-07-09T09:03:31;0.88;;;0.88;;
17784;SDS011;9016;53.582;10.062;2023-07-09T09:06:10;0.90;;;0.90;;
17784;SDS011;9016;53.582;10.062;2023-07-09T09:08:40;0.90;;;0.90;;
17784;SDS011;9016;53.582;10.062;2023-07-09T09:11:14;0.95;;;0.95;;
17784;SDS011;9016;53.582;10.062;2023-07-09T09:13:50;0.90;;;0.90;;
17784;SDS011;9016;53.582;10.062;2023-07-09T09:16:22;1.00;;;1.00;;
17784;SDS011;9016;53.582;10.062;2023-07-09T09:18:54;1.00;;;1.00;;
17784;SDS011;9016;53.582;10.062;2023-07-09T09:21:25;1.00;;;1.00;;
17784;SDS011;9016;53.582;10.062;2023-07-09T09:23:58;1.00;;;1.00;;
17784;SDS011;9016;53.582;10.062;2023-07-09T09:26:39;1.02;;;1.02;;
17784;SDS011;9016;53.582;10.062;2023-07-09T09:29:12;0.90;;;0.90;;
17784;SDS011;9016;53.582;10.062;2023-07-09T09:31:44;1.00;;;1.00;;
17784;SDS011;9016;53.582;10.062;2023-07-09T09:34:19;0.98;;;0.98;;
17784;SDS011;9016;53.582;10.062;2023-07-09T09:36:48;0.90;;;0.90;;
17784;SDS011;9016;53.582;10.062;2023-07-09T09:39:17;0.90;;;0.90;;
17784;SDS011;9016;53.582;10.062;2023-07-09T09:41:46;0.80;;;0.80;;
17784;SDS011;9016;53.582;10.062;2023-07-09T09:44:20;0.80;;;0.80;;
17784;SDS011;9016;53.582;10.062;2023-07-09T09:46:55;0.80;;;0.80;;
17784;SDS011;9016;53.582;10.062;2023-07-09T09:49:26;0.70;;;0.70;;
17784;SDS011;9016;53.582;10.062;2023-07-09T09:51:55;0.60;;;0.60;;
17784;SDS011;9016;53.582;10.062;2023-07-09T09:54:24;0.60;;;0.60;;
17784;SDS011;9016;53.582;10.062;2023-07-09T09:56:57;0.60;;;0.60;;
17784;SDS011;9016;53.582;10.062;2023-07-09T09:59:27;0.70;;;0.70;;
17784;SDS011;9016;53.582;10.062;2023-07-09T10:01:59;0.60;;;0.60;;
17784;SDS011;9016;53.582;10.062;2023-07-09T10:04:28;0.60;;;0.60;;
17784;SDS011;9016;53.582;10.062;2023-07-09T10:06:57;0.60;;;0.60;;
17784;SDS011;9016;53.582;10.062;2023-07-09T10:09:38;0.60;;;0.60;;
17784;SDS011;9016;53.582;10.062;2023-07-09T10:12:19;0.60;;;0.60;;
17784;SDS011;9016;53.582;10.062;2023-07-09T10:15:05;0.60;;;0.60;;
17784;SDS011;9016;53.582;10.062;2023-07-09T10:17:53;0.63;;;0.63;;
17784;SDS011;9016;53.582;10.062;2023-07-09T10:20:25;0.52;;;0.52;;
17784;SDS011;9016;53.582;10.062;2023-07-09T10:23:13;0.50;;;0.50;;
17784;SDS011;9016;53.582;10.062;2023-07-09T10:25:51;0.60;;;0.60;;
17784;SDS011;9016;53.582;10.062;2023-07-09T10:28:29;0.60;;;0.60;;
17784;SDS011;9016;53.582;10.062;2023-07-09T10:31:12;0.60;;;0.60;;
17784;SDS011;9016;53.582;10.062;2023-07-09T10:33:50;0.60;;;0.60;;
17784;SDS011;9016;53.582;10.062;2023-07-09T10:36:35;0.50;;;0.50;;
17784;SDS011;9016;53.582;10.062;2023-07-09T10:39:13;0.60;;;0.60;;
17784;SDS011;9016;53.582;10.062;2023-07-09T10:41:45;0.60;;;0.60;;
17784;SDS011;9016;53.582;10.062;2023-07-09T10:44:18;0.57;;;0.57;;
17784;SDS011;9016;53.582;10.062;2023-07-09T10:46:52;0.60;;;0.60;;
17784;SDS011;9016;53.582;10.062;2023-07-09T10:49:28;0.52;;;0.52;;
17784;SDS011;9016;53.582;10.062;2023-07-09T10:52:01;0.60;;;0.60;;
17784;SDS011;9016;53.582;10.062;2023-07-09T10:54:35;0.60;;;0.60;;
17784;SDS011;9016;53.582;10.062;2023-07-09T10:57:10;0.60;;;0.60;;
17784;SDS011;9016;53.582;10.062;2023-07-09T10:59:42;0.60;;;0.60;;
17784;SDS011;9016;53.582;10.062;2023-07-09T11:02:18;0.50;;;0.50;;
17784;SDS011;9016;53.582;10.062;2023-07-09T11:04:49;0.60;;;0.60;;
17784;SDS011;9016;53.582;10.062;2023-07-09T11:07:22;0.60;;;0.60;;
17784;SDS011;9016;53.582;10.062;2023-07-09T11:09:55;0.65;;;0.65;;
17784;SDS011;9016;53.582;10.062;2023-07-09T11:12:28;0.70;;;0.70;;
17784;SDS011;9016;53.582;10.062;2023-07-09T11:14:59;0.50;;;0.50;;
17784;SDS011;9016;53.582;10.062;2023-07-09T11:17:40;0.60;;;0.60;;
17784;SDS011;9016;53.582;10.062;2023-07-09T11:20:16;0.57;;;0.57;;
17784;SDS011;9016;53.582;10.062;2023-07-09T11:22:51;0.60;;;0.60;;
17784;SDS011;9016;53.582;10.062;2023-07-09T11:25:28;0.60;;;0.60;;
17784;SDS011;9016;53.582;10.062;2023-07-09T11:28:08;0.60;;;0.60;;
17784;SDS011;9016;53.582;10.062;2023-07-09T11:30:47;0.60;;;0.60;;
17784;SDS011;9016;53.582;10.062;2023-07-09T11:33:18;0.60;;;0.60;;
17784;SDS011;9016;53.582;10.062;2023-07-09T11:35:53;0.60;;;0.60;;
17784;SDS011;9016;53.582;10.062;2023-07-09T11:38:40;0.57;;;0.57;;
17784;SDS011;9016;53.582;10.062;2023-07-09T11:41:24;0.52;;;0.52;;
17784;SDS011;9016;53.582;10.062;2023-07-09T11:44:02;0.68;;;0.68;;
17784;SDS011;9016;53.582;10.062;2023-07-09T11:46:33;0.60;;;0.60;;
17784;SDS011;9016;53.582;10.062;2023-07-09T11:49:06;0.60;;;0.60;;
17784;SDS011;9016;53.582;10.062;2023-07-09T11:51:38;0.60;;;0.60;;
17784;SDS011;9016;53.582;10.062;2023-07-09T11:54:11;0.50;;;0.50;;
17784;SDS011;9016;53.582;10.062;2023-07-09T11:56:40;0.55;;;0.55;;
17784;SDS011;9016;53.582;10.062;2023-07-09T11:59:08;0.52;;;0.52;;
17784;SDS011;9016;53.582;10.062;2023-07-09T12:01:40;0.60;;;0.60;;
17784;SDS011;9016;53.582;10.062;2023-07-09T12:04:13;0.52;;;0.52;;
17784;SDS011;9016;53.582;10.062;2023-07-09T12:06:43;0.52;;;0.52;;
17784;SDS011;9016;53.582;10.062;2023-07-09T12:09:13;0.55;;;0.55;;
17784;SDS011;9016;53.582;10.062;2023-07-09T12:11:44;0.60;;;0.60;;
17784;SDS011;9016;53.582;10.062;2023-07-09T12:14:17;0.50;;;0.50;;
17784;SDS011;9016;53.582;10.062;2023-07-09T12:16:47;0.60;;;0.60;;
17784;SDS011;9016;53.582;10.062;2023-07-09T12:19:19;0.60;;;0.60;;
17784;SDS011;9016;53.582;10.062;2023-07-09T12:21:48;0.50;;;0.50;;
17784;SDS011;9016;53.582;10.062;2023-07-09T12:24:20;0.60;;;0.60;;
17784;SDS011;9016;53.582;10.062;2023-07-09T12:26:51;0.60;;;0.60;;
17784;SDS011;9016;53.582;10.062;2023-07-09T12:29:20;0.57;;;0.57;;
17784;SDS011;9016;53.582;10.062;2023-07-09T12:31:51;0.60;;;0.60;;
17784;SDS011;9016;53.582;10.062;2023-07-09T12:34:20;0.50;;;0.50;;
17784;SDS011;9016;53.582;10.062;2023-07-09T12:36:49;0.60;;;0.60;;
17784;SDS011;9016;53.582;10.062;2023-07-09T12:39:21;0.55;;;0.55;;
17784;SDS011;9016;53.582;10.062;2023-07-09T12:41:53;0.60;;;0.60;;
17784;SDS011;9016;53.582;10.062;2023-07-09T12:44:23;0.60;;;0.60;;
17784;SDS011;9016;53.582;10.062;2023-07-09T12:46:52;0.50;;;0.50;;
17784;SDS011;9016;53.582;10.062;2023-07-09T12:49:24;0.60;;;0.60;;
17784;SDS011;9016;53.582;10.062;2023-07-09T12:51:54;0.50;;;0.50;;
17784;SDS011;9016;53.582;10.062;2023-07-09T12:54:23;0.60;;;0.60;;
17784;SDS011;9016;53.582;10.062;2023-07-09T12:56:53;0.60;;;0.60;;
17784;SDS011;9016;53.582;10.062;2023-07-09T12:59:23;0.60;;;0.60;;
17784;SDS011;9016;53.582;10.062;2023-07-09T13:01:55;0.60;;;0.60;;
17784;SDS011;9016;53.582;10.062;2023-07-09T13:04:29;0.60;;;0.60;;
17784;SDS011;9016;53.582;10.062;2023-07-09T13:06:58;0.52;;;0.52;;
17784;SDS011;9016;53.582;10.062;2023-07-09T13:09:27;0.68;;;0.68;;
17784;SDS011;9016;53.582;10.062;2023-07-09T13:11:55;0.50;;;0.50;;
17784;SDS011;9016;53.582;10.062;2023-07-09T13:14:25;0.60;;;0.60;;
17784;SDS011;9016;53.582;10.062;2023-07-09T13:17:01;0.60;;;0.60;;
17784;SDS011;9016;53.582;10.062;2023-07-09T13:19:32;0.60;;;0.60;;
17784;SDS011;9016;53.582;10.062;2023-07-09T13:22:01;0.50;;;0.50;;
17784;SDS011;9016;53.582;10.062;2023-07-09T13:24:32;0.60;;;0.60;;
17784;SDS011;9016;53.582;10.062;2023-07-09T13:27:00;0.60;;;0.60;;
17784;SDS011;9016;53.582;10.062;2023-07-09T13:29:30;0.70;;;0.70;;
17784;SDS011;9016;53.582;10.062;2023-07-09T13:31:59;0.60;;;0.60;;
17784;SDS011;9016;53.582;10.062;2023-07-09T13:34:28;0.57;;;0.57;;
17784;SDS011;9016;53.582;10.062;2023-07-09T13:37:01;0.50;;;0.50;;
17784;SDS011;9016;53.582;10.062;2023-07-09T13:39:29;0.60;;;0.60;;
17784;SDS011;9016;53.582;10.062;2023-07-09T13:41:57;0.60;;;0.60;;
17784;SDS011;9016;53.582;10.062;2023-07-09T13:44:26;0.60;;;0.60;;
17784;SDS011;9016;53.582;10.062;2023-07-09T13:46:57;0.50;;;0.50;;
17784;SDS011;9016;53.582;10.062;2023-07-09T13:49:25;0.50;;;0.50;;
17784;SDS011;9016;53.582;10.062;2023-07-09T13:51:55;0.60;;;0.60;;
17784;SDS011;9016;53.582;10.062;2023-07-09T13:54:28;0.50;;;0.50;;
17784;SDS011;9016;53.582;10.062;2023-07-09T13:57:02;0.60;;;0.60;;
17784;SDS011;9016;53.582;10.062;2023-07-09T13:59:31;0.60;;;0.60;;
17784;SDS011;9016;53.582;10.062;2023-07-09T14:01:59;0.60;;;0.60;;
17784;SDS011;9016;53.582;10.062;2023-07-09T14:04:31;0.60;;;0.60;;
17784;SDS011;9016;53.582;10.062;2023-07-09T14:06:59;0.60;;;0.60;;
17784;SDS011;9016;53.582;10.062;2023-07-09T14:09:29;0.50;;;0.50;;
17784;SDS011;9016;53.582;10.062;2023-07-09T14:11:57;0.57;;;0.57;;
17784;SDS011;9016;53.582;10.062;2023-07-09T14:14:27;0.52;;;0.52;;
17784;SDS011;9016;53.582;10.062;2023-07-09T14:16:59;0.50;;;0.50;;
17784;SDS011;9016;53.582;10.062;2023-07-09T14:19:28;0.50;;;0.50;;
17784;SDS011;9016;53.582;10.062;2023-07-09T14:21:56;0.50;;;0.50;;
17784;SDS011;9016;53.582;10.062;2023-07-09T14:24:24;0.50;;;0.50;;
17784;SDS011;9016;53.582;10.062;2023-07-09T14:26:57;0.60;;;0.60;;
17784;SDS011;9016;53.582;10.062;2023-07-09T14:29:25;0.50;;;0.50;;
17784;SDS011;9016;53.582;10.062;2023-07-09T14:31:53;0.50;;;0.50;;
17784;SDS011;9016;53.582;10.062;2023-07-09T14:34:26;0.60;;;0.60;;
17784;SDS011;9016;53.582;10.062;2023-07-09T14:36:57;0.50;;;0.50;;
17784;SDS011;9016;53.582;10.062;2023-07-09T14:39:26;0.50;;;0.50;;
17784;SDS011;9016;53.582;10.062;2023-07-09T14:41:59;0.50;;;0.50;;
17784;SDS011;9016;53.582;10.062;2023-07-09T14:44:28;0.60;;;0.60;;
17784;SDS011;9016;53.582;10.062;2023-07-09T14:46:57;0.52;;;0.52;;
17784;SDS011;9016;53.582;10.062;2023-07-09T14:49:26;0.50;;;0.50;;
17784;SDS011;9016;53.582;10.062;2023-07-09T14:51:55;0.60;;;0.60;;
17784;SDS011;9016;53.582;10.062;2023-07-09T14:54:24;0.60;;;0.60;;
17784;SDS011;9016;53.582;10.062;2023-07-09T14:56:54;0.60;;;0.60;;
17784;SDS011;9016;53.582;10.062;2023-07-09T14:59:25;0.60;;;0.60;;
17784;SDS011;9016;53.582;10.062;2023-07-09T15:01:53;0.50;;;0.50;;
17784;SDS011;9016;53.582;10.062;2023-07-09T15:04:28;0.60;;;0.60;;
17784;SDS011;9016;53.582;10.062;2023-07-09T15:06:59;0.50;;;0.50;;
17784;SDS011;9016;53.582;10.062;2023-07-09T15:09:27;0.50;;;0.50;;